Five Mile Terrace, California
Current Conditions -  °F | °C
As of 6:35 AM on Sunday 21 Dec 2014 (Local Time) from KPVF Reporting Station
Overcast Overcast  
Wind Chill: 45°   Ceiling: 400
Heat Index: 48°   Visibility: 0.25mi
Dew Point: 48°   Wind: 7mph
Humidity: 100%   Direction: 130°SE
Pressure: 30.29"   Gusts: NA
Location:  38.7308°N, 120.774°W
Report Text: KPVF 211435Z AUTO 13006KT 1/4SM OVC004 09/09 A3029 RMK AO1 P0001
Loading
Personal Weather Stations






























Interactive Weather Map New forecast layout! Learn more

10-Day Weather Forecast

Advertisements
Track Severe Weather on mobile